createdAt,value
2023-04-05T00:01:01.258Z,101196.72
2023-04-05T00:05:58.410Z,101188.31
2023-04-05T00:10:54.771Z,101191.06
2023-04-05T00:15:51.094Z,101179.47
2023-04-05T00:20:48.750Z,101180.50
2023-04-05T00:25:45.214Z,101178.72
2023-04-05T00:30:41.750Z,101178.31
2023-04-05T00:35:38.330Z,101186.19
2023-04-05T00:40:34.833Z,101174.41
2023-04-05T00:45:31.483Z,101174.03
2023-04-05T00:50:30.784Z,101167.38
2023-04-05T00:55:27.112Z,101170.00
2023-04-05T01:00:23.461Z,101160.25
2023-04-05T01:05:23.947Z,101155.00
2023-04-05T01:10:21.992Z,101160.84
2023-04-05T01:15:18.902Z,101157.69
2023-04-05T01:20:15.426Z,101153.44
2023-04-05T01:25:42.719Z,101158.66
2023-04-05T01:30:39.917Z,101154.16
2023-04-05T01:35:39.531Z,101151.63
2023-04-05T01:40:37.251Z,101147.53
2023-04-05T01:45:33.513Z,101148.47
2023-04-05T01:50:29.775Z,101138.97
2023-04-05T01:55:26.052Z,101133.06
2023-04-05T02:00:22.982Z,101126.34
2023-04-05T02:05:19.294Z,101114.38
2023-04-05T02:10:15.889Z,101116.97
2023-04-05T02:15:12.343Z,101109.31
2023-04-05T02:20:10.568Z,101106.06
2023-04-05T02:25:08.954Z,101113.03
2023-04-05T02:30:05.712Z,101110.03
2023-04-05T02:35:02.589Z,101103.22
2023-04-05T02:39:58.832Z,101108.50
2023-04-05T02:44:55.134Z,101115.22
2023-04-05T02:49:51.400Z,101110.63
2023-04-05T02:54:47.644Z,101109.00
2023-04-05T02:59:44.100Z,101114.47
2023-04-05T03:04:40.895Z,101112.94
2023-04-05T03:09:38.404Z,101093.88
2023-04-05T03:14:34.765Z,101103.44
2023-04-05T03:19:31.075Z,101098.31
2023-04-05T03:24:27.338Z,101090.63
2023-04-05T03:29:23.605Z,101095.03
2023-04-05T03:34:19.900Z,101084.50
2023-04-05T03:39:16.170Z,101089.59
2023-04-05T03:44:12.542Z,101095.69
2023-04-05T03:49:08.820Z,101086.97
2023-04-05T03:54:05.226Z,101083.25
2023-04-05T03:59:01.966Z,101082.38
2023-04-05T04:04:00.254Z,101081.34
2023-04-05T04:08:57.086Z,101079.78
2023-04-05T04:13:53.961Z,101078.13
2023-04-05T04:18:54.133Z,101074.72
2023-04-05T04:23:51.816Z,101078.22
2023-04-05T04:28:48.777Z,101076.38
2023-04-05T04:33:45.007Z,101076.53
2023-04-05T04:38:42.890Z,101075.03
2023-04-05T04:43:44.143Z,101076.88
2023-04-05T04:48:43.350Z,101070.59
2023-04-05T04:53:39.587Z,101073.22
2023-04-05T04:58:36.036Z,101069.91
2023-04-05T05:03:34.349Z,101077.88
2023-04-05T05:08:30.792Z,101080.66
2023-04-05T05:13:27.151Z,101087.59
2023-04-05T05:18:23.768Z,101090.53
2023-04-05T05:23:21.218Z,101088.34
2023-04-05T05:28:17.561Z,101080.75
2023-04-05T05:33:13.853Z,101081.00
2023-04-05T05:38:11.932Z,101082.09
2023-04-05T05:43:12.873Z,101078.25
2023-04-05T05:48:09.428Z,101089.47
2023-04-05T05:53:05.942Z,101079.81
2023-04-05T05:58:02.186Z,101085.56
2023-04-05T06:02:59.215Z,101083.53
2023-04-05T06:07:55.804Z,101082.38
2023-04-05T06:12:52.264Z,101084.66
2023-04-05T06:17:48.620Z,101082.56
2023-04-05T06:22:44.958Z,101079.97
2023-04-05T06:27:41.343Z,101079.09
2023-04-05T06:32:37.743Z,101080.63
2023-04-05T06:37:34.042Z,101076.50
2023-04-05T06:42:30.419Z,101085.22
2023-04-05T06:47:26.719Z,101082.81
2023-04-05T06:52:22.970Z,101081.22
2023-04-05T06:57:19.286Z,101071.56
2023-04-05T07:02:15.516Z,101071.47
2023-04-05T07:07:11.919Z,101072.03
2023-04-05T07:12:08.656Z,101066.06
2023-04-05T07:17:06.092Z,101063.00
2023-04-05T07:22:02.428Z,101050.19
2023-04-05T07:26:58.676Z,101039.56
2023-04-05T07:31:54.970Z,101042.59
2023-04-05T07:36:51.241Z,101047.06
2023-04-05T07:41:47.485Z,101039.00
2023-04-05T07:46:49.124Z,101039.94
2023-04-05T07:51:46.374Z,101033.84
2023-04-05T07:56:43.060Z,101033.31
2023-04-05T08:01:39.976Z,101041.22
2023-04-05T08:06:36.812Z,101033.22
2023-04-05T08:11:33.334Z,101030.25
2023-04-05T08:16:29.788Z,101031.88
2023-04-05T08:21:26.620Z,101024.22
2023-04-05T08:26:23.013Z,101026.97
2023-04-05T08:31:20.901Z,101019.94
2023-04-05T08:36:17.580Z,101013.31
2023-04-05T08:41:14.886Z,101023.94
2023-04-05T08:46:13.426Z,101013.47
2023-04-05T08:51:09.857Z,101011.88
2023-04-05T08:56:06.898Z,101009.31
2023-04-05T09:01:04.696Z,101014.06
2023-04-05T09:06:01.448Z,101007.16
2023-04-05T09:10:58.218Z,101019.50
2023-04-05T09:15:54.637Z,101002.47
2023-04-05T09:20:51.172Z,101013.81
2023-04-05T09:25:52.522Z,101000.13
2023-04-05T09:30:48.972Z,101002.09
2023-04-05T09:35:45.298Z,100984.91
2023-04-05T09:40:43.648Z,100999.22
2023-04-05T09:45:41.667Z,100981.84
2023-04-05T09:50:38.172Z,100986.88
2023-04-05T09:55:34.586Z,100979.00
2023-04-05T10:00:33.653Z,100977.09
2023-04-05T10:05:30.012Z,100975.19
2023-04-05T10:10:26.348Z,100975.41
2023-04-05T10:15:23.298Z,100979.94
2023-04-05T10:20:20.413Z,100966.22
2023-04-05T10:25:16.683Z,100970.13
2023-04-05T10:30:13.115Z,100948.63
2023-04-05T10:35:12.731Z,100947.19
2023-04-05T10:40:12.870Z,100948.22
2023-04-05T10:45:12.261Z,100955.50
2023-04-05T10:50:09.199Z,100953.84
2023-04-05T10:55:06.004Z,100940.25
2023-04-05T11:00:02.501Z,100937.03
2023-04-05T11:05:03.181Z,100930.53
2023-04-05T11:10:01.714Z,100926.13
2023-04-05T11:15:18.039Z,100929.94
2023-04-05T11:20:14.344Z,100916.94
2023-04-05T11:25:21.760Z,100912.09
2023-04-05T11:30:38.004Z,100904.97
2023-04-05T11:35:34.619Z,100899.75
2023-04-05T11:40:31.969Z,100897.63
2023-04-05T11:45:31.866Z,100883.63
2023-04-05T11:50:28.670Z,100889.78
2023-04-05T11:55:27.792Z,100888.38
2023-04-05T12:00:24.109Z,100883.31
2023-04-05T12:05:20.453Z,100875.47
2023-04-05T12:10:17.260Z,100869.50
2023-04-05T12:15:15.136Z,100865.91
2023-04-05T12:20:12.711Z,100853.09
2023-04-05T12:25:09.291Z,100862.47
2023-04-05T12:30:06.500Z,100859.50
2023-04-05T12:35:06.012Z,100852.22
2023-04-05T12:40:03.092Z,100835.09
2023-04-05T12:45:06.597Z,100830.81
2023-04-05T12:50:12.948Z,100829.66
2023-04-05T12:55:16.141Z,100824.13
2023-04-05T13:00:12.647Z,100805.91
2023-04-05T13:05:09.342Z,100810.75
2023-04-05T13:10:06.003Z,100799.00
2023-04-05T13:15:02.304Z,100807.41
2023-04-05T13:19:58.567Z,100804.31
2023-04-05T13:24:54.937Z,100801.97
2023-04-05T13:29:51.659Z,100787.31
2023-04-05T13:34:48.794Z,100785.69
2023-04-05T13:39:45.337Z,100790.28
2023-04-05T13:44:41.741Z,100794.34
2023-04-05T13:49:38.353Z,100781.50
2023-04-05T13:54:34.818Z,100783.56
2023-04-05T13:59:31.277Z,100781.16
2023-04-05T14:04:28.777Z,100777.19
2023-04-05T14:09:25.270Z,100767.34
2023-04-05T14:14:21.617Z,100758.50
2023-04-05T14:19:18.392Z,100746.22
2023-04-05T14:24:14.686Z,100751.94
2023-04-05T14:29:11.088Z,100754.72
2023-04-05T14:34:07.394Z,100747.84
2023-04-05T14:39:04.284Z,100745.09
2023-04-05T14:44:00.958Z,100742.25
2023-04-05T14:48:57.299Z,100741.84
2023-04-05T14:53:53.609Z,100727.78
2023-04-05T14:58:49.925Z,100727.16
2023-04-05T15:03:48.351Z,100725.22
2023-04-05T15:08:44.757Z,100722.88
2023-04-05T15:13:41.169Z,100714.97
2023-04-05T15:18:37.674Z,100713.34
2023-04-05T15:23:34.265Z,100720.56
2023-04-05T15:28:30.528Z,100708.06
2023-04-05T15:33:26.870Z,100706.56
2023-04-05T15:38:23.151Z,100702.66
2023-04-05T15:43:20.801Z,100699.22
2023-04-05T15:48:17.204Z,100697.44
2023-04-05T15:53:13.506Z,100707.16
2023-04-05T15:58:09.777Z,100692.09
2023-04-05T16:03:06.363Z,100700.03
2023-04-05T16:08:02.772Z,100694.41
2023-04-05T16:12:59.059Z,100692.13
2023-04-05T16:17:56.097Z,100682.69
2023-04-05T16:22:52.718Z,100683.41
2023-04-05T16:27:49.027Z,100677.38
2023-04-05T16:32:45.387Z,100685.28
2023-04-05T16:37:42.811Z,100672.03
2023-04-05T16:42:39.268Z,100668.47
2023-04-05T16:47:35.755Z,100655.19
2023-04-05T16:52:32.066Z,100650.16
2023-04-05T16:57:28.347Z,100640.41
2023-04-05T17:02:24.649Z,100630.41
2023-04-05T17:07:21.158Z,100637.59
2023-04-05T17:12:17.477Z,100639.22
2023-04-05T17:17:13.755Z,100636.84
2023-04-05T17:22:10.054Z,100632.03
2023-04-05T17:27:06.462Z,100643.38
2023-04-05T17:32:02.894Z,100650.97
2023-04-05T17:37:01.289Z,100651.63
2023-04-05T17:41:57.582Z,100667.00
2023-04-05T17:47:05.513Z,100664.13
2023-04-05T17:52:08.465Z,100671.94
2023-04-05T17:57:05.504Z,100679.16
2023-04-05T18:02:01.865Z,100675.41
2023-04-05T18:06:58.184Z,100681.84
2023-04-05T18:11:54.448Z,100678.19
2023-04-05T18:16:50.925Z,100683.53
2023-04-05T18:21:47.368Z,100687.03
2023-04-05T18:26:43.728Z,100698.03
2023-04-05T18:31:40.148Z,100692.06
2023-04-05T18:36:39.534Z,100707.13
2023-04-05T18:41:35.819Z,100705.19
2023-04-05T18:46:32.165Z,100710.56
2023-04-05T18:51:28.572Z,100717.75
2023-04-05T18:56:26.390Z,100727.00
2023-04-05T19:01:23.565Z,100728.78
2023-04-05T19:06:20.286Z,100736.13
2023-04-05T19:11:18.464Z,100746.19
2023-04-05T19:16:17.294Z,100755.44
2023-04-05T19:21:13.999Z,100767.97
2023-04-05T19:26:10.903Z,100755.78
2023-04-05T19:31:07.908Z,100763.19
2023-04-05T19:36:04.414Z,100761.88
2023-04-05T19:41:00.824Z,100749.63
2023-04-05T19:45:58.144Z,100752.66
2023-04-05T19:50:56.474Z,100760.16
2023-04-05T19:55:52.977Z,100753.53
2023-04-05T20:00:52.781Z,100750.06
2023-04-05T20:05:49.182Z,100751.72
2023-04-05T20:10:52.019Z,100747.75
2023-04-05T20:15:51.296Z,100744.81
2023-04-05T20:20:47.773Z,100743.22
2023-04-05T20:25:44.586Z,100737.78
2023-04-05T20:30:41.095Z,100736.16
2023-04-05T20:35:37.549Z,100724.91
2023-04-05T20:40:33.907Z,100723.50
2023-04-05T20:45:30.167Z,100722.22
2023-04-05T20:50:26.424Z,100710.59
2023-04-05T20:55:22.824Z,100712.81
2023-04-05T21:00:19.551Z,100725.13
2023-04-05T21:05:15.836Z,100719.22
2023-04-05T21:10:13.268Z,100710.84
2023-04-05T21:15:09.658Z,100712.94
2023-04-05T21:20:06.217Z,100716.81
2023-04-05T21:25:07.934Z,100711.06
2023-04-05T21:30:04.520Z,100715.78
2023-04-05T21:35:00.988Z,100711.69
2023-04-05T21:39:57.284Z,100708.81
2023-04-05T21:44:53.578Z,100715.84
2023-04-05T21:49:50.071Z,100714.22
2023-04-05T21:54:46.490Z,100715.44
2023-04-05T21:59:42.808Z,100716.63
2023-04-05T22:04:39.543Z,100710.63
2023-04-05T22:09:35.852Z,100714.91
2023-04-05T22:14:32.300Z,100712.56
2023-04-05T22:19:28.660Z,100718.09
2023-04-05T22:24:26.103Z,100701.63
2023-04-05T22:29:22.838Z,100692.31
2023-04-05T22:34:19.103Z,100680.91
2023-04-05T22:39:15.564Z,100679.66
2023-04-05T22:44:11.927Z,100676.41
2023-04-05T22:49:08.717Z,100678.00
2023-04-05T22:54:05.246Z,100670.00
2023-04-05T22:59:01.842Z,100662.06
2023-04-05T23:03:58.148Z,100663.09
2023-04-05T23:08:54.424Z,100660.09
2023-04-05T23:13:50.967Z,100660.53
2023-04-05T23:18:49.100Z,100660.38
2023-04-05T23:23:45.373Z,100649.50
2023-04-05T23:28:41.713Z,100649.03
2023-04-05T23:33:38.043Z,100645.97
2023-04-05T23:38:34.304Z,100640.00
2023-04-05T23:43:30.729Z,100636.91
2023-04-05T23:48:27.295Z,100629.00
2023-04-05T23:53:23.679Z,100627.78
2023-04-05T23:58:20.474Z,100622.56
